createdAt,value
2017-05-07T00:00:03.737Z,0
2017-05-07T00:01:12.628Z,0
2017-05-07T00:02:21.669Z,0
2017-05-07T00:03:30.561Z,0
2017-05-07T00:04:39.453Z,0
2017-05-07T00:05:48.672Z,0
2017-05-07T00:06:57.576Z,0
2017-05-07T00:08:06.871Z,0
2017-05-07T00:09:16.092Z,0
2017-05-07T00:10:24.980Z,0
2017-05-07T00:11:34.192Z,0
2017-05-07T00:12:43.422Z,0
2017-05-07T00:13:52.464Z,0
2017-05-07T00:15:01.685Z,0
2017-05-07T00:16:10.576Z,0
2017-05-07T00:17:19.467Z,0
2017-05-07T00:18:28.687Z,0
2017-05-07T00:19:37.634Z,0
2017-05-07T00:20:46.881Z,0
2017-05-07T00:21:55.770Z,0
2017-05-07T00:23:04.664Z,0
2017-05-07T00:24:13.888Z,0
2017-05-07T00:25:22.777Z,0
2017-05-07T00:26:32.314Z,0
2017-05-07T00:27:41.534Z,0
2017-05-07T00:28:51.077Z,0
2017-05-07T00:30:00.291Z,0
2017-05-07T00:31:09.483Z,0
2017-05-07T00:32:19.021Z,0
2017-05-07T00:33:27.912Z,0
2017-05-07T00:34:37.456Z,0
2017-05-07T00:35:46.671Z,0
2017-05-07T00:36:56.413Z,0
2017-05-07T00:38:06.312Z,0
2017-05-07T00:39:15.532Z,0
2017-05-07T00:40:24.430Z,0
2017-05-07T00:41:34.000Z,0
2017-05-07T00:42:43.368Z,0
2017-05-07T00:43:52.594Z,0
2017-05-07T00:45:01.814Z,0
2017-05-07T00:46:11.360Z,0
2017-05-07T00:47:20.904Z,0
2017-05-07T00:48:31.093Z,0
2017-05-07T00:49:40.632Z,0
2017-05-07T00:50:49.529Z,0
2017-05-07T00:51:59.073Z,0
2017-05-07T00:53:08.940Z,0
2017-05-07T00:54:18.207Z,0
2017-05-07T00:55:27.100Z,0
2017-05-07T00:56:36.314Z,0
2017-05-07T00:57:45.860Z,0
2017-05-07T00:58:55.082Z,0
2017-05-07T01:00:04.450Z,0
2017-05-07T01:01:13.697Z,0
2017-05-07T01:02:22.588Z,0
2017-05-07T01:03:31.809Z,0
2017-05-07T01:04:41.049Z,0
2017-05-07T01:05:50.368Z,0
2017-05-07T01:06:59.909Z,0
2017-05-07T01:08:08.800Z,0
2017-05-07T01:09:17.698Z,0
2017-05-07T01:10:27.242Z,0
2017-05-07T01:11:36.436Z,0
2017-05-07T01:12:46.312Z,0
2017-05-07T01:13:55.540Z,0
2017-05-07T01:15:05.085Z,0
2017-05-07T01:16:13.976Z,0
2017-05-07T01:17:23.260Z,0
2017-05-07T01:18:32.803Z,0
2017-05-07T01:19:41.696Z,0
2017-05-07T01:20:50.911Z,0
2017-05-07T01:21:59.804Z,0
2017-05-07T01:23:09.323Z,0
2017-05-07T01:24:18.543Z,0
2017-05-07T01:25:27.433Z,0
2017-05-07T01:26:36.325Z,0
2017-05-07T01:27:45.574Z,0
2017-05-07T01:28:54.873Z,0
2017-05-07T01:30:04.414Z,0
2017-05-07T01:31:13.312Z,0
2017-05-07T01:32:22.208Z,0
2017-05-07T01:33:31.457Z,0
2017-05-07T01:34:40.723Z,0
2017-05-07T01:35:49.623Z,0
2017-05-07T01:36:58.517Z,0
2017-05-07T01:38:07.760Z,0
2017-05-07T01:39:16.656Z,0
2017-05-07T01:40:26.027Z,0
2017-05-07T01:41:35.242Z,0
2017-05-07T01:42:44.460Z,0
2017-05-07T01:43:54.005Z,0
2017-05-07T01:45:03.253Z,0
2017-05-07T01:46:12.454Z,0
2017-05-07T01:47:21.672Z,0
2017-05-07T01:48:31.240Z,0
2017-05-07T01:49:40.461Z,0
2017-05-07T01:50:49.351Z,0
2017-05-07T01:51:58.770Z,0
2017-05-07T01:53:07.666Z,0
2017-05-07T01:54:16.564Z,0
2017-05-07T01:55:25.783Z,0
2017-05-07T01:56:34.669Z,0
2017-05-07T01:57:44.461Z,0
2017-05-07T01:58:53.685Z,0
2017-05-07T02:00:02.904Z,0
2017-05-07T02:01:12.125Z,0
2017-05-07T02:02:21.339Z,0
2017-05-07T02:03:31.182Z,0
2017-05-07T02:04:40.398Z,0
2017-05-07T02:05:49.615Z,0
2017-05-07T02:06:58.509Z,0
2017-05-07T02:08:07.729Z,0
2017-05-07T02:09:16.924Z,0
2017-05-07T02:10:25.815Z,0
2017-05-07T02:11:35.361Z,0
2017-05-07T02:12:44.583Z,0
2017-05-07T02:13:53.796Z,0
2017-05-07T02:15:03.066Z,0
2017-05-07T02:16:12.279Z,0
2017-05-07T02:17:21.493Z,0
2017-05-07T02:18:31.035Z,0
2017-05-07T02:19:39.929Z,0
2017-05-07T02:20:48.979Z,0
2017-05-07T02:21:57.869Z,0
2017-05-07T02:23:08.060Z,0
2017-05-07T02:24:16.963Z,0
2017-05-07T02:25:25.852Z,0
2017-05-07T02:26:34.945Z,0
2017-05-07T02:27:44.813Z,0
2017-05-07T02:28:54.352Z,0
2017-05-07T02:30:03.909Z,0
2017-05-07T02:31:13.448Z,0
2017-05-07T02:32:23.392Z,0
2017-05-07T02:33:32.610Z,0
2017-05-07T02:34:41.505Z,0
2017-05-07T02:35:50.401Z,0
2017-05-07T02:36:59.294Z,0
2017-05-07T02:38:08.987Z,0
2017-05-07T02:39:17.887Z,0
2017-05-07T02:40:27.096Z,0
2017-05-07T02:41:35.989Z,0
2017-05-07T02:42:45.208Z,0
2017-05-07T02:43:54.906Z,0
2017-05-07T02:45:04.459Z,0
2017-05-07T02:46:13.344Z,0
2017-05-07T02:47:22.883Z,0
2017-05-07T02:48:32.100Z,0
2017-05-07T02:49:41.466Z,0
2017-05-07T02:50:50.681Z,0
2017-05-07T02:51:59.572Z,0
2017-05-07T02:53:08.784Z,0
2017-05-07T02:54:18.001Z,0
2017-05-07T02:55:27.477Z,0
2017-05-07T02:56:36.691Z,0
2017-05-07T02:57:45.587Z,0
2017-05-07T02:58:55.127Z,0
2017-05-07T03:00:04.667Z,0
2017-05-07T03:01:13.653Z,0
2017-05-07T03:02:22.868Z,0
2017-05-07T03:03:32.082Z,0
2017-05-07T03:04:41.304Z,0
2017-05-07T03:05:50.840Z,0
2017-05-07T03:07:00.107Z,0
2017-05-07T03:08:09.649Z,0
2017-05-07T03:09:18.867Z,0
2017-05-07T03:10:28.086Z,0
2017-05-07T03:11:36.976Z,0
2017-05-07T03:12:46.797Z,0
2017-05-07T03:13:55.688Z,0
2017-05-07T03:15:04.902Z,0
2017-05-07T03:16:13.796Z,0
2017-05-07T03:17:22.687Z,0
2017-05-07T03:18:32.002Z,0
2017-05-07T03:19:40.891Z,0
2017-05-07T03:20:49.783Z,0
2017-05-07T03:21:59.331Z,0
2017-05-07T03:23:08.869Z,0
2017-05-07T03:24:18.333Z,0
2017-05-07T03:25:27.552Z,0
2017-05-07T03:26:36.766Z,0
2017-05-07T03:27:45.990Z,0
2017-05-07T03:28:55.538Z,0
2017-05-07T03:30:04.681Z,0
2017-05-07T03:31:13.905Z,0
2017-05-07T03:32:22.796Z,0
2017-05-07T03:33:32.015Z,0
2017-05-07T03:34:41.561Z,0
2017-05-07T03:35:50.551Z,0
2017-05-07T03:36:59.763Z,0
2017-05-07T03:38:08.979Z,0
2017-05-07T03:39:18.195Z,0
2017-05-07T03:40:27.418Z,0
2017-05-07T03:41:37.005Z,0
2017-05-07T03:42:46.548Z,0
2017-05-07T03:43:55.766Z,5
2017-05-07T03:45:05.015Z,5
2017-05-07T03:46:13.906Z,5
2017-05-07T03:47:23.279Z,5
2017-05-07T03:48:32.494Z,5
2017-05-07T03:49:41.395Z,5
2017-05-07T03:50:50.931Z,5
2017-05-07T03:52:00.477Z,5
2017-05-07T03:53:09.990Z,5
2017-05-07T03:54:19.205Z,5
2017-05-07T03:55:28.125Z,5
2017-05-07T03:56:37.017Z,5
2017-05-07T03:57:46.561Z,5
2017-05-07T03:58:56.250Z,5
2017-05-07T04:00:05.793Z,10
2017-05-07T04:01:15.332Z,10
2017-05-07T04:02:24.217Z,10
2017-05-07T04:03:33.796Z,10
2017-05-07T04:04:43.488Z,10
2017-05-07T04:05:52.707Z,10
2017-05-07T04:07:01.920Z,15
2017-05-07T04:08:10.811Z,15
2017-05-07T04:09:20.365Z,15
2017-05-07T04:10:29.681Z,15
2017-05-07T04:11:39.225Z,20
2017-05-07T04:12:49.098Z,20
2017-05-07T04:13:58.318Z,20
2017-05-07T04:15:07.863Z,20
2017-05-07T04:16:16.855Z,25
2017-05-07T04:17:26.075Z,25
2017-05-07T04:18:35.618Z,25
2017-05-07T04:19:44.841Z,25
2017-05-07T04:20:54.092Z,25
2017-05-07T04:22:03.458Z,30
2017-05-07T04:23:12.349Z,30
2017-05-07T04:24:21.570Z,30
2017-05-07T04:25:30.787Z,30
2017-05-07T04:26:39.681Z,25
2017-05-07T04:27:49.272Z,30
2017-05-07T04:28:58.163Z,30
2017-05-07T04:30:07.052Z,30
2017-05-07T04:31:16.271Z,35
2017-05-07T04:32:25.816Z,35
2017-05-07T04:33:34.903Z,35
2017-05-07T04:34:44.125Z,40
2017-05-07T04:35:53.020Z,35
2017-05-07T04:37:01.909Z,35
2017-05-07T04:38:10.809Z,35
2017-05-07T04:39:20.376Z,40
2017-05-07T04:40:29.597Z,40
2017-05-07T04:41:38.813Z,40
2017-05-07T04:42:47.714Z,40
2017-05-07T04:43:57.582Z,40
2017-05-07T04:45:07.276Z,40
2017-05-07T04:46:16.168Z,40
2017-05-07T04:47:25.710Z,40
2017-05-07T04:48:34.939Z,40
2017-05-07T04:49:43.832Z,40
2017-05-07T04:50:53.047Z,40
2017-05-07T04:52:01.947Z,40
2017-05-07T04:53:11.490Z,40
2017-05-07T04:54:20.714Z,40
2017-05-07T04:55:29.609Z,40
2017-05-07T04:56:39.250Z,45
2017-05-07T04:57:48.472Z,45
2017-05-07T04:58:57.693Z,45
2017-05-07T05:00:06.916Z,45
2017-05-07T05:01:16.136Z,50
2017-05-07T05:02:25.451Z,50
2017-05-07T05:03:35.318Z,50
2017-05-07T05:04:44.898Z,50
2017-05-07T05:05:54.116Z,50
2017-05-07T05:07:03.331Z,50
2017-05-07T05:08:12.471Z,50
2017-05-07T05:09:21.690Z,50
2017-05-07T05:10:30.580Z,55
2017-05-07T05:11:39.505Z,55
2017-05-07T05:12:48.728Z,55
2017-05-07T05:13:58.320Z,55
2017-05-07T05:15:07.870Z,55
2017-05-07T05:16:16.764Z,50
2017-05-07T05:17:25.984Z,50
2017-05-07T05:18:34.885Z,55
2017-05-07T05:19:44.255Z,55
2017-05-07T05:20:53.148Z,60
2017-05-07T05:22:02.047Z,60
2017-05-07T05:23:12.240Z,60
2017-05-07T05:24:21.131Z,55
2017-05-07T05:25:30.402Z,55
2017-05-07T05:26:39.303Z,50
2017-05-07T05:27:48.521Z,50
2017-05-07T05:28:57.738Z,50
2017-05-07T05:30:07.279Z,45
2017-05-07T05:31:16.496Z,50
2017-05-07T05:32:25.774Z,45
2017-05-07T05:33:35.316Z,45
2017-05-07T05:34:44.533Z,45
2017-05-07T05:35:53.429Z,45
2017-05-07T05:37:02.701Z,45
2017-05-07T05:38:11.590Z,45
2017-05-07T05:39:20.485Z,50
2017-05-07T05:40:29.377Z,50
2017-05-07T05:41:38.270Z,55
2017-05-07T05:42:47.787Z,55
2017-05-07T05:43:56.686Z,55
2017-05-07T05:45:05.905Z,60
2017-05-07T05:46:15.118Z,60
2017-05-07T05:47:24.341Z,65
2017-05-07T05:48:33.713Z,70
2017-05-07T05:49:42.608Z,70
2017-05-07T05:50:51.502Z,70
2017-05-07T05:52:00.397Z,75
2017-05-07T05:53:09.291Z,75
2017-05-07T05:54:18.237Z,75
2017-05-07T05:55:27.452Z,75
2017-05-07T05:56:36.343Z,75
2017-05-07T05:57:45.558Z,75
2017-05-07T05:58:55.426Z,75
2017-05-07T06:00:04.809Z,75
2017-05-07T06:01:13.699Z,80
2017-05-07T06:02:22.914Z,80
2017-05-07T06:03:32.164Z,80
2017-05-07T06:04:42.030Z,90
2017-05-07T06:05:51.397Z,85
2017-05-07T06:07:00.284Z,90
2017-05-07T06:08:09.833Z,95
2017-05-07T06:09:19.380Z,95
2017-05-07T06:10:28.598Z,100
2017-05-07T06:11:37.971Z,105
2017-05-07T06:12:46.870Z,110
2017-05-07T06:13:56.419Z,115
2017-05-07T06:15:05.311Z,120
2017-05-07T06:16:14.208Z,125
2017-05-07T06:17:23.258Z,130
2017-05-07T06:18:32.863Z,135
2017-05-07T06:19:41.761Z,145
2017-05-07T06:20:50.654Z,150
2017-05-07T06:21:59.553Z,155
2017-05-07T06:23:08.875Z,165
2017-05-07T06:24:17.777Z,175
2017-05-07T06:25:26.674Z,180
2017-05-07T06:26:36.214Z,180
2017-05-07T06:27:45.106Z,185
2017-05-07T06:28:55.022Z,195
2017-05-07T06:30:04.889Z,195
2017-05-07T06:31:14.432Z,195
2017-05-07T06:32:23.977Z,195
2017-05-07T06:33:32.905Z,205
2017-05-07T06:34:41.946Z,215
2017-05-07T06:35:50.839Z,220
2017-05-07T06:37:00.104Z,225
2017-05-07T06:38:09.321Z,225
2017-05-07T06:39:18.218Z,225
2017-05-07T06:40:28.186Z,230
2017-05-07T06:41:37.082Z,235
2017-05-07T06:42:45.977Z,245
2017-05-07T06:43:54.880Z,260
2017-05-07T06:45:04.101Z,270
2017-05-07T06:46:12.996Z,280
2017-05-07T06:47:21.893Z,285
2017-05-07T06:48:30.818Z,295
2017-05-07T06:49:40.037Z,310
2017-05-07T06:50:48.958Z,315
2017-05-07T06:51:58.376Z,325
2017-05-07T06:53:07.593Z,330
2017-05-07T06:54:16.812Z,330
2017-05-07T06:55:26.060Z,330
2017-05-07T06:56:34.953Z,330
2017-05-07T06:57:44.273Z,330
2017-05-07T06:58:53.168Z,335
2017-05-07T07:00:02.387Z,335
2017-05-07T07:01:11.609Z,325
2017-05-07T07:02:20.825Z,325
2017-05-07T07:03:30.201Z,315
2017-05-07T07:04:39.092Z,315
2017-05-07T07:05:47.991Z,315
2017-05-07T07:06:57.541Z,315
2017-05-07T07:08:06.761Z,315
2017-05-07T07:09:16.136Z,315
2017-05-07T07:10:25.373Z,315
2017-05-07T07:11:34.271Z,305
2017-05-07T07:12:43.166Z,305
2017-05-07T07:13:52.389Z,295
2017-05-07T07:15:01.752Z,290
2017-05-07T07:16:10.661Z,285
2017-05-07T07:17:19.550Z,285
2017-05-07T07:18:28.772Z,290
2017-05-07T07:19:37.994Z,295
2017-05-07T07:20:47.214Z,295
2017-05-07T07:21:56.108Z,300
2017-05-07T07:23:05.022Z,300
2017-05-07T07:24:13.922Z,295
2017-05-07T07:25:23.468Z,295
2017-05-07T07:26:33.111Z,290
2017-05-07T07:27:42.008Z,290
2017-05-07T07:28:50.908Z,290
2017-05-07T07:30:00.126Z,290
2017-05-07T07:31:09.343Z,295
2017-05-07T07:32:18.711Z,300
2017-05-07T07:33:27.930Z,310
2017-05-07T07:34:36.826Z,315
2017-05-07T07:35:45.755Z,325
2017-05-07T07:36:54.649Z,335
2017-05-07T07:38:04.667Z,330
2017-05-07T07:39:13.889Z,325
2017-05-07T07:40:22.781Z,325
2017-05-07T07:41:32.320Z,320
2017-05-07T07:42:41.214Z,315
2017-05-07T07:43:50.735Z,315
2017-05-07T07:44:59.960Z,315
2017-05-07T07:46:08.857Z,315
2017-05-07T07:47:17.756Z,315
2017-05-07T07:48:26.654Z,310
2017-05-07T07:49:35.543Z,310
2017-05-07T07:50:44.441Z,315
2017-05-07T07:51:53.331Z,315
2017-05-07T07:53:02.549Z,315
2017-05-07T07:54:11.774Z,315
2017-05-07T07:55:21.045Z,310
2017-05-07T07:56:29.935Z,315
2017-05-07T07:57:39.160Z,300
2017-05-07T07:58:48.381Z,295
2017-05-07T07:59:57.282Z,305
2017-05-07T08:01:06.327Z,300
2017-05-07T08:02:15.872Z,305
2017-05-07T08:03:24.773Z,310
2017-05-07T08:04:33.997Z,310
2017-05-07T08:05:43.305Z,305
2017-05-07T08:06:52.673Z,300
2017-05-07T08:08:01.573Z,295
2017-05-07T08:09:10.467Z,295
2017-05-07T08:10:20.007Z,290
2017-05-07T08:11:28.901Z,290
2017-05-07T08:12:37.804Z,280
2017-05-07T08:13:47.023Z,280
2017-05-07T08:14:56.567Z,280
2017-05-07T08:16:05.787Z,280
2017-05-07T08:17:14.681Z,275
2017-05-07T08:18:23.673Z,270
2017-05-07T08:19:32.569Z,275
2017-05-07T08:20:41.468Z,275
2017-05-07T08:21:50.751Z,275
2017-05-07T08:22:59.681Z,275
2017-05-07T08:24:08.905Z,275
2017-05-07T08:25:17.804Z,280
2017-05-07T08:26:27.027Z,285
2017-05-07T08:27:35.921Z,290
2017-05-07T08:28:44.817Z,290
2017-05-07T08:29:54.012Z,300
2017-05-07T08:31:02.909Z,300
2017-05-07T08:32:12.477Z,305
2017-05-07T08:33:21.698Z,315
2017-05-07T08:34:30.921Z,315
2017-05-07T08:35:40.146Z,320
2017-05-07T08:36:49.038Z,325
2017-05-07T08:37:58.580Z,330
2017-05-07T08:39:07.829Z,330
2017-05-07T08:40:16.722Z,335
2017-05-07T08:41:25.943Z,340
2017-05-07T08:42:35.485Z,345
2017-05-07T08:43:44.703Z,330
2017-05-07T08:44:53.606Z,325
2017-05-07T08:46:02.823Z,320
2017-05-07T08:47:12.047Z,320
2017-05-07T08:48:20.944Z,325
2017-05-07T08:49:29.838Z,320
2017-05-07T08:50:38.742Z,320
2017-05-07T08:51:47.640Z,325
2017-05-07T08:52:56.863Z,320
2017-05-07T08:54:05.761Z,315
2017-05-07T08:55:14.659Z,315
2017-05-07T08:56:23.877Z,320
2017-05-07T08:57:32.777Z,320
2017-05-07T08:58:41.672Z,320
2017-05-07T08:59:50.602Z,320
2017-05-07T09:00:59.648Z,315
2017-05-07T09:02:08.866Z,320
2017-05-07T09:03:18.089Z,325
2017-05-07T09:04:27.311Z,315
2017-05-07T09:05:36.245Z,310
2017-05-07T09:06:45.462Z,320
2017-05-07T09:07:54.368Z,320
2017-05-07T09:09:03.266Z,325
2017-05-07T09:10:12.492Z,325
2017-05-07T09:11:22.366Z,320
2017-05-07T09:12:31.265Z,325
2017-05-07T09:13:40.164Z,340
2017-05-07T09:14:49.062Z,345
2017-05-07T09:15:58.605Z,340
2017-05-07T09:17:07.832Z,345
2017-05-07T09:18:16.726Z,345
2017-05-07T09:19:25.939Z,345
2017-05-07T09:20:35.195Z,340
2017-05-07T09:21:45.063Z,345
2017-05-07T09:22:53.960Z,350
2017-05-07T09:24:02.855Z,350
2017-05-07T09:25:12.412Z,345
2017-05-07T09:26:21.308Z,350
2017-05-07T09:27:30.854Z,350
2017-05-07T09:28:39.747Z,355
2017-05-07T09:29:48.643Z,355
2017-05-07T09:30:57.557Z,355
2017-05-07T09:32:06.927Z,365
2017-05-07T09:33:16.151Z,380
2017-05-07T09:34:25.076Z,385
2017-05-07T09:35:33.974Z,395
2017-05-07T09:36:42.869Z,410
2017-05-07T09:37:52.468Z,415
2017-05-07T09:39:01.360Z,420
2017-05-07T09:40:10.258Z,420
2017-05-07T09:41:19.155Z,415
2017-05-07T09:42:28.049Z,390
2017-05-07T09:43:37.369Z,390
2017-05-07T09:44:46.589Z,400
2017-05-07T09:45:55.491Z,415
2017-05-07T09:47:04.712Z,430
2017-05-07T09:48:13.608Z,435
2017-05-07T09:49:23.452Z,445
2017-05-07T09:50:32.349Z,455
2017-05-07T09:51:41.242Z,455
2017-05-07T09:52:50.465Z,475
2017-05-07T09:53:59.687Z,490
2017-05-07T09:55:09.014Z,520
2017-05-07T09:56:18.564Z,530
2017-05-07T09:57:28.149Z,505
2017-05-07T09:58:37.050Z,480
2017-05-07T09:59:45.955Z,465
2017-05-07T10:00:55.602Z,460
2017-05-07T10:02:04.495Z,455
2017-05-07T10:03:14.047Z,445
2017-05-07T10:04:22.944Z,435
2017-05-07T10:05:31.842Z,440
2017-05-07T10:06:41.363Z,440
2017-05-07T10:07:50.587Z,455
2017-05-07T10:08:59.485Z,450
2017-05-07T10:10:08.712Z,445
2017-05-07T10:11:17.611Z,425
2017-05-07T10:12:26.661Z,415
2017-05-07T10:13:35.557Z,415
2017-05-07T10:14:44.452Z,415
2017-05-07T10:15:53.352Z,420
2017-05-07T10:17:02.251Z,420
2017-05-07T10:18:11.145Z,410
2017-05-07T10:19:20.043Z,410
2017-05-07T10:20:29.265Z,405
2017-05-07T10:21:38.487Z,400
2017-05-07T10:22:47.714Z,405
2017-05-07T10:23:57.414Z,420
2017-05-07T10:25:06.638Z,420
2017-05-07T10:26:15.541Z,430
2017-05-07T10:27:24.787Z,430
2017-05-07T10:28:33.719Z,430
2017-05-07T10:29:43.357Z,425
2017-05-07T10:30:52.582Z,435
2017-05-07T10:32:01.808Z,440
2017-05-07T10:33:10.704Z,455
2017-05-07T10:34:19.600Z,470
2017-05-07T10:35:29.022Z,495
2017-05-07T10:36:37.921Z,505
2017-05-07T10:37:47.473Z,510
2017-05-07T10:38:56.749Z,515
2017-05-07T10:40:06.294Z,525
2017-05-07T10:41:15.590Z,515
2017-05-07T10:42:24.500Z,505
2017-05-07T10:43:34.050Z,480
2017-05-07T10:44:43.273Z,475
2017-05-07T10:45:52.170Z,465
2017-05-07T10:47:01.117Z,465
2017-05-07T10:48:10.671Z,500
2017-05-07T10:49:19.890Z,525
2017-05-07T10:50:29.115Z,550
2017-05-07T10:51:38.342Z,575
2017-05-07T10:52:47.418Z,590
2017-05-07T10:53:56.320Z,585
2017-05-07T10:55:05.871Z,610
2017-05-07T10:56:15.420Z,630
2017-05-07T10:57:24.970Z,645
2017-05-07T10:58:34.025Z,615
2017-05-07T10:59:42.926Z,630
2017-05-07T11:00:52.156Z,660
2017-05-07T11:02:01.057Z,655
2017-05-07T11:03:10.290Z,615
2017-05-07T11:04:19.694Z,585
2017-05-07T11:05:28.624Z,605
2017-05-07T11:06:37.843Z,605
2017-05-07T11:07:46.743Z,645
2017-05-07T11:08:55.964Z,675
2017-05-07T11:10:05.293Z,690
2017-05-07T11:11:14.190Z,695
2017-05-07T11:12:23.085Z,685
2017-05-07T11:13:32.313Z,740
2017-05-07T11:14:41.245Z,795
2017-05-07T11:15:50.296Z,830
2017-05-07T11:16:59.192Z,835
2017-05-07T11:18:08.089Z,815
2017-05-07T11:19:17.007Z,795
2017-05-07T11:20:25.900Z,755
2017-05-07T11:21:35.170Z,705
2017-05-07T11:22:44.074Z,675
2017-05-07T11:23:53.315Z,675
2017-05-07T11:25:02.579Z,675
2017-05-07T11:26:11.805Z,635
2017-05-07T11:27:20.854Z,625
2017-05-07T11:28:30.077Z,640
2017-05-07T11:29:38.986Z,670
2017-05-07T11:30:47.906Z,665
2017-05-07T11:31:57.150Z,650
2017-05-07T11:33:06.202Z,720
2017-05-07T11:34:15.424Z,790
2017-05-07T11:35:24.650Z,740
2017-05-07T11:36:33.566Z,680
2017-05-07T11:37:42.466Z,600
2017-05-07T11:38:51.762Z,620
2017-05-07T11:40:00.658Z,710
2017-05-07T11:41:09.889Z,745
2017-05-07T11:42:18.786Z,745
2017-05-07T11:43:27.681Z,710
2017-05-07T11:44:36.632Z,665
2017-05-07T11:45:45.532Z,660
2017-05-07T11:46:54.431Z,705
2017-05-07T11:48:03.325Z,780
2017-05-07T11:49:12.548Z,840
2017-05-07T11:50:21.449Z,1095
2017-05-07T11:51:30.347Z,1835
2017-05-07T11:52:39.574Z,2215
2017-05-07T11:53:48.481Z,765
2017-05-07T11:54:57.703Z,2280
2017-05-07T11:56:06.654Z,1560
2017-05-07T11:57:16.204Z,670
2017-05-07T11:58:25.428Z,855
2017-05-07T11:59:34.657Z,1450
2017-05-07T12:00:43.884Z,3040
2017-05-07T12:01:53.463Z,2925
2017-05-07T12:03:02.696Z,3070
2017-05-07T12:04:11.917Z,2820
2017-05-07T12:05:21.142Z,2900
2017-05-07T12:06:30.041Z,3110
2017-05-07T12:07:39.515Z,2810
2017-05-07T12:08:48.744Z,1260
2017-05-07T12:09:57.970Z,1845
2017-05-07T12:11:07.535Z,915
2017-05-07T12:12:16.436Z,1160
2017-05-07T12:13:26.031Z,2665
2017-05-07T12:14:35.258Z,2865
2017-05-07T12:15:44.487Z,2765
2017-05-07T12:16:53.719Z,2805
2017-05-07T12:18:02.679Z,2635
2017-05-07T12:19:12.170Z,2360
2017-05-07T12:20:21.074Z,2335
2017-05-07T12:21:30.001Z,2385
2017-05-07T12:22:38.907Z,2385
2017-05-07T12:23:47.824Z,2460
2017-05-07T12:24:57.220Z,2535
2017-05-07T12:26:06.448Z,2375
2017-05-07T12:27:15.361Z,2485
2017-05-07T12:28:24.588Z,2360
2017-05-07T12:29:33.815Z,2390
2017-05-07T12:30:43.520Z,2600
2017-05-07T12:31:52.421Z,2700
2017-05-07T12:33:01.982Z,3295
2017-05-07T12:34:10.923Z,3460
2017-05-07T12:35:20.167Z,3235
2017-05-07T12:36:29.621Z,3005
2017-05-07T12:37:38.536Z,3105
2017-05-07T12:38:47.768Z,3365
2017-05-07T12:39:56.685Z,3530
2017-05-07T12:41:05.620Z,3425
2017-05-07T12:42:14.598Z,3475
2017-05-07T12:43:24.166Z,3395
2017-05-07T12:44:33.106Z,3060
2017-05-07T12:45:42.017Z,2885
2017-05-07T12:46:51.253Z,1875
2017-05-07T12:48:00.262Z,2375
2017-05-07T12:49:09.173Z,1125
2017-05-07T12:50:18.111Z,840
2017-05-07T12:51:27.077Z,845
2017-05-07T12:52:36.051Z,2170
2017-05-07T12:53:45.571Z,2805
2017-05-07T12:54:54.516Z,2810
2017-05-07T12:56:03.427Z,3060
2017-05-07T12:57:12.331Z,905
2017-05-07T12:58:21.234Z,1155
2017-05-07T12:59:30.410Z,2820
2017-05-07T13:00:39.324Z,2800
2017-05-07T13:01:48.882Z,2390
2017-05-07T13:02:57.788Z,695
2017-05-07T13:04:07.021Z,2520
2017-05-07T13:05:16.314Z,1130
2017-05-07T13:06:25.221Z,2670
2017-05-07T13:07:34.127Z,1630
2017-05-07T13:08:43.041Z,835
2017-05-07T13:09:52.274Z,1185
2017-05-07T13:11:01.229Z,890
2017-05-07T13:12:10.135Z,785
2017-05-07T13:13:19.046Z,895
2017-05-07T13:14:28.607Z,2590
2017-05-07T13:15:37.842Z,2665
2017-05-07T13:16:46.801Z,2780
2017-05-07T13:17:55.705Z,3005
2017-05-07T13:19:04.615Z,3190
2017-05-07T13:20:14.169Z,3205
2017-05-07T13:21:23.077Z,3405
2017-05-07T13:22:32.317Z,3520
2017-05-07T13:23:41.224Z,3365
2017-05-07T13:24:50.129Z,3575
2017-05-07T13:25:59.365Z,3360
2017-05-07T13:27:08.276Z,3485
2017-05-07T13:28:17.661Z,3275
2017-05-07T13:29:26.892Z,3105
2017-05-07T13:30:35.800Z,3250
2017-05-07T13:31:44.709Z,3700
2017-05-07T13:32:54.274Z,3695
2017-05-07T13:34:03.335Z,3680
2017-05-07T13:35:12.247Z,3400
2017-05-07T13:36:21.155Z,3500
2017-05-07T13:37:30.392Z,3515
2017-05-07T13:38:39.953Z,3510
2017-05-07T13:39:49.236Z,3625
2017-05-07T13:40:58.148Z,3730
2017-05-07T13:42:07.070Z,3710
2017-05-07T13:43:16.306Z,3765
2017-05-07T13:44:25.864Z,3660
2017-05-07T13:45:35.353Z,3555
2017-05-07T13:46:44.593Z,1685
2017-05-07T13:47:53.828Z,3535
2017-05-07T13:49:02.766Z,3545
2017-05-07T13:50:11.676Z,3155
2017-05-07T13:51:20.594Z,3480
2017-05-07T13:52:29.510Z,3505
2017-05-07T13:53:39.075Z,3185
2017-05-07T13:54:48.313Z,3335
2017-05-07T13:55:57.552Z,3450
2017-05-07T13:57:06.942Z,3585
2017-05-07T13:58:16.187Z,3725
2017-05-07T13:59:25.097Z,3790
2017-05-07T14:00:34.336Z,3540
2017-05-07T14:01:43.251Z,3480
2017-05-07T14:02:52.266Z,3440
2017-05-07T14:04:01.188Z,3365
2017-05-07T14:05:10.125Z,3485
2017-05-07T14:06:19.035Z,3425
2017-05-07T14:07:28.295Z,3650
2017-05-07T14:08:37.304Z,3530
2017-05-07T14:09:46.573Z,3300
2017-05-07T14:10:55.820Z,3385
2017-05-07T14:12:05.387Z,3400
2017-05-07T14:13:14.304Z,3420
2017-05-07T14:14:23.271Z,3375
2017-05-07T14:15:32.561Z,3420
2017-05-07T14:16:41.476Z,3355
2017-05-07T14:17:50.720Z,3440
2017-05-07T14:18:59.636Z,3495
2017-05-07T14:20:09.349Z,3625
2017-05-07T14:21:18.261Z,3750
2017-05-07T14:22:27.498Z,3525
2017-05-07T14:23:36.419Z,3415
2017-05-07T14:24:45.347Z,3240
2017-05-07T14:25:54.314Z,3050
2017-05-07T14:27:03.552Z,2630
2017-05-07T14:28:12.793Z,2750
2017-05-07T14:29:21.712Z,2680
2017-05-07T14:30:30.951Z,2690
2017-05-07T14:31:40.195Z,2570
2017-05-07T14:32:49.758Z,2440
2017-05-07T14:33:59.003Z,2495
2017-05-07T14:35:08.248Z,2145
2017-05-07T14:36:18.467Z,2010
2017-05-07T14:37:27.431Z,1965
2017-05-07T14:38:36.345Z,2615
2017-05-07T14:39:45.585Z,2710
2017-05-07T14:40:54.500Z,2815
2017-05-07T14:42:03.413Z,2845
2017-05-07T14:43:12.649Z,2655
2017-05-07T14:44:21.883Z,3135
2017-05-07T14:45:30.792Z,3275
2017-05-07T14:46:39.703Z,3545
2017-05-07T14:47:48.938Z,3490
2017-05-07T14:48:58.179Z,3410
2017-05-07T14:50:07.087Z,3550
2017-05-07T14:51:15.999Z,3405
2017-05-07T14:52:24.927Z,3545
2017-05-07T14:53:33.840Z,3540
2017-05-07T14:54:43.058Z,3515
2017-05-07T14:55:52.329Z,3255
2017-05-07T14:57:01.568Z,2910
2017-05-07T14:58:10.494Z,3480
2017-05-07T14:59:19.409Z,3465
2017-05-07T15:00:28.374Z,3705
2017-05-07T15:01:37.289Z,3275
2017-05-07T15:02:46.209Z,3060
2017-05-07T15:03:55.788Z,3420
2017-05-07T15:05:04.705Z,3175
2017-05-07T15:06:14.104Z,3130
2017-05-07T15:07:23.032Z,2695
2017-05-07T15:08:32.273Z,2415
2017-05-07T15:09:41.512Z,2680
2017-05-07T15:10:50.459Z,3040
2017-05-07T15:12:00.203Z,3220
2017-05-07T15:13:09.120Z,3315
2017-05-07T15:14:18.687Z,2585
2017-05-07T15:15:27.605Z,2045
2017-05-07T15:16:36.842Z,2465
2017-05-07T15:17:45.860Z,2585
2017-05-07T15:18:54.782Z,2680
2017-05-07T15:20:03.696Z,2905
2017-05-07T15:21:12.614Z,3060
2017-05-07T15:22:21.529Z,2835
2017-05-07T15:23:30.593Z,2570
2017-05-07T15:24:39.504Z,2740
2017-05-07T15:25:48.418Z,3230
2017-05-07T15:26:57.657Z,3210
2017-05-07T15:28:06.572Z,3200
2017-05-07T15:29:15.548Z,3285
2017-05-07T15:30:24.470Z,3385
2017-05-07T15:31:33.745Z,3010
2017-05-07T15:32:42.659Z,2875
2017-05-07T15:33:51.578Z,2985
2017-05-07T15:35:00.498Z,3005
2017-05-07T15:36:09.425Z,3020
2017-05-07T15:37:18.670Z,2895
2017-05-07T15:38:27.587Z,2495
2017-05-07T15:39:36.500Z,2740
2017-05-07T15:40:45.419Z,2555
2017-05-07T15:41:54.333Z,2515
2017-05-07T15:43:03.249Z,2445
2017-05-07T15:44:12.164Z,2685
2017-05-07T15:45:21.075Z,2675
2017-05-07T15:46:30.288Z,2830
2017-05-07T15:47:39.532Z,3110
2017-05-07T15:48:48.775Z,3110
2017-05-07T15:49:58.010Z,2970
2017-05-07T15:51:06.926Z,2850
2017-05-07T15:52:15.989Z,2960
2017-05-07T15:53:24.913Z,2990
2017-05-07T15:54:34.480Z,3045
2017-05-07T15:55:43.396Z,2965
2017-05-07T15:56:52.320Z,2850
2017-05-07T15:58:01.268Z,2895
2017-05-07T15:59:10.522Z,2770
2017-05-07T16:00:20.086Z,2640
2017-05-07T16:01:28.999Z,2395
2017-05-07T16:02:38.277Z,2365
2017-05-07T16:03:47.682Z,2505
2017-05-07T16:04:56.922Z,2200